createdAt,value
2018-09-13T00:02:18.551Z,20.90
2018-09-13T00:07:37.189Z,25.93
2018-09-13T00:12:55.796Z,29.73
2018-09-13T00:18:14.493Z,25.50
2018-09-13T00:23:33.132Z,28.97
2018-09-13T00:28:52.632Z,27.93
2018-09-13T00:34:11.307Z,25.57
2018-09-13T00:39:29.996Z,28.20
2018-09-13T00:44:48.591Z,22.43
2018-09-13T00:50:07.671Z,23.30
2018-09-13T00:55:26.261Z,22.90
2018-09-13T01:00:45.207Z,26.40
2018-09-13T01:06:03.753Z,20.77
2018-09-13T01:11:22.342Z,20.53
2018-09-13T01:16:40.947Z,19.80
2018-09-13T01:21:59.580Z,19.20
2018-09-13T01:27:18.202Z,18.63
2018-09-13T01:32:36.766Z,19.27
2018-09-13T01:37:55.359Z,22.50
2018-09-13T01:43:13.965Z,19.43
2018-09-13T01:48:32.559Z,22.10
2018-09-13T01:53:51.145Z,19.77
2018-09-13T01:59:09.723Z,19.33
2018-09-13T02:04:28.354Z,18.27
2018-09-13T02:09:45.830Z,18.37
2018-09-13T02:15:04.519Z,18.80
2018-09-13T02:20:23.294Z,20.53
2018-09-13T02:25:42.055Z,17.00
2018-09-13T02:31:00.823Z,16.07
2018-09-13T02:36:19.611Z,17.60
2018-09-13T02:41:38.596Z,14.63
2018-09-13T02:46:57.498Z,16.97
2018-09-13T02:52:16.249Z,16.87
2018-09-13T02:57:34.980Z,18.90
2018-09-13T03:02:53.886Z,16.97
2018-09-13T03:08:12.616Z,23.90
2018-09-13T03:13:31.267Z,27.63
2018-09-13T03:18:50.067Z,29.33
2018-09-13T03:24:08.905Z,21.40
2018-09-13T03:29:27.712Z,20.37
2018-09-13T03:34:46.694Z,22.50
2018-09-13T03:40:05.840Z,21.23
2018-09-13T03:45:24.691Z,19.53
2018-09-13T03:50:43.546Z,20.70
2018-09-13T03:56:02.307Z,22.23
2018-09-13T04:01:20.969Z,22.83
2018-09-13T04:06:39.816Z,24.43
2018-09-13T04:11:58.742Z,26.33
2018-09-13T04:17:17.629Z,26.00
2018-09-13T04:22:39.427Z,23.47
2018-09-13T04:27:58.187Z,28.37
2018-09-13T04:33:16.999Z,24.83
2018-09-13T04:38:35.566Z,30.07
2018-09-13T04:43:54.179Z,26.70
2018-09-13T04:49:12.982Z,27.03
2018-09-13T04:54:31.592Z,27.20
2018-09-13T04:59:50.230Z,32.60
2018-09-13T05:05:09.109Z,27.73
2018-09-13T05:10:27.667Z,33.27
2018-09-13T05:15:46.195Z,30.00
2018-09-13T05:21:05.923Z,29.60
2018-09-13T05:26:24.638Z,31.47
2018-09-13T05:31:43.228Z,29.57
2018-09-13T05:37:02.076Z,31.60
2018-09-13T05:42:20.820Z,29.03
2018-09-13T05:47:39.482Z,32.77
2018-09-13T05:52:58.199Z,30.30
2018-09-13T05:58:16.923Z,34.70
2018-09-13T06:03:35.500Z,28.33
2018-09-13T06:08:54.375Z,26.00
2018-09-13T06:14:13.109Z,24.27
2018-09-13T06:19:32.232Z,19.50
2018-09-13T06:24:51.621Z,20.30
2018-09-13T06:30:11.298Z,18.62
2018-09-13T06:35:29.875Z,21.73
2018-09-13T06:40:48.432Z,18.33
2018-09-13T06:46:07.054Z,21.43
2018-09-13T06:51:25.690Z,20.07
2018-09-13T06:56:44.472Z,16.67
2018-09-13T07:02:03.053Z,18.17
2018-09-13T07:07:21.702Z,17.23
2018-09-13T07:12:40.487Z,16.97
2018-09-13T07:17:59.210Z,18.33
2018-09-13T07:23:18.098Z,16.30
2018-09-13T07:28:36.981Z,19.07
2018-09-13T07:33:55.710Z,16.07
2018-09-13T07:39:15.204Z,20.37
2018-09-13T07:44:33.852Z,18.60
2018-09-13T07:49:52.575Z,18.60
2018-09-13T07:55:11.440Z,20.43
2018-09-13T08:00:30.259Z,21.47
2018-09-13T08:05:49.534Z,21.37
2018-09-13T08:11:08.450Z,25.47
2018-09-13T08:16:27.520Z,28.37
2018-09-13T08:21:46.275Z,30.40
2018-09-13T08:27:05.487Z,28.83
2018-09-13T08:32:24.477Z,26.67
2018-09-13T08:37:43.782Z,29.23
2018-09-13T08:43:02.395Z,25.57
2018-09-13T08:48:21.018Z,27.10
2018-09-13T08:53:39.622Z,25.37
2018-09-13T08:58:58.294Z,24.13
2018-09-13T09:04:16.883Z,25.88
2018-09-13T09:09:35.480Z,23.53
2018-09-13T09:14:54.200Z,24.90
2018-09-13T09:20:12.780Z,29.95
2018-09-13T09:25:31.417Z,27.10
2018-09-13T09:30:50.568Z,29.57
2018-09-13T09:36:09.169Z,29.53
2018-09-13T09:41:27.779Z,32.63
2018-09-13T09:46:46.319Z,30.17
2018-09-13T09:52:04.980Z,30.77
2018-09-13T09:57:23.595Z,27.47
2018-09-13T10:02:42.214Z,27.77
2018-09-13T10:08:01.179Z,24.70
2018-09-13T10:13:19.727Z,30.77
2018-09-13T10:18:44.549Z,30.13
2018-09-13T10:24:08.809Z,30.53
2018-09-13T10:30:34.266Z,27.47
2018-09-13T10:35:58.144Z,31.03
2018-09-13T10:42:21.707Z,28.23
2018-09-13T10:47:45.663Z,28.57
2018-09-13T10:53:05.863Z,30.77
2018-09-13T10:58:24.649Z,26.33
2018-09-13T11:03:43.198Z,27.50
2018-09-13T11:09:01.938Z,24.10
2018-09-13T11:14:26.937Z,21.43
2018-09-13T11:19:45.552Z,25.50
2018-09-13T11:25:04.653Z,24.33
2018-09-13T11:30:23.354Z,18.60
2018-09-13T11:35:41.981Z,18.27
2018-09-13T11:41:00.812Z,15.80
2018-09-13T11:46:19.715Z,15.03
2018-09-13T11:51:38.997Z,13.97
2018-09-13T11:56:57.708Z,14.33
2018-09-13T12:02:16.470Z,12.60
2018-09-13T12:07:35.064Z,14.03
2018-09-13T12:12:53.698Z,14.63
2018-09-13T12:18:13.062Z,10.80
2018-09-13T12:23:31.747Z,7.40
2018-09-13T12:28:50.379Z,9.33
2018-09-13T12:34:09.129Z,8.53
2018-09-13T12:39:27.727Z,9.13
2018-09-13T12:44:46.503Z,9.17
2018-09-13T12:50:06.219Z,7.87
2018-09-13T12:55:30.794Z,8.03
2018-09-13T13:00:49.475Z,6.20
2018-09-13T13:06:08.144Z,7.10
2018-09-13T13:11:26.667Z,5.27
2018-09-13T13:16:45.590Z,6.00
2018-09-13T13:22:04.364Z,6.13
2018-09-13T13:27:23.055Z,6.30
2018-09-13T13:32:41.662Z,6.57
2018-09-13T13:38:00.222Z,7.17
2018-09-13T13:43:18.872Z,5.60
2018-09-13T13:48:37.918Z,6.50
2018-09-13T13:53:56.474Z,7.20
2018-09-13T13:59:15.041Z,6.87
2018-09-13T14:04:33.887Z,4.77
2018-09-13T14:09:52.598Z,4.77
2018-09-13T14:15:11.095Z,4.83
2018-09-13T14:20:29.675Z,5.77
2018-09-13T14:25:48.248Z,6.97
2018-09-13T14:31:06.886Z,5.43
2018-09-13T14:36:25.459Z,6.47
2018-09-13T14:41:43.983Z,5.83
2018-09-13T14:47:02.551Z,6.47
2018-09-13T14:52:21.187Z,5.90
2018-09-13T14:57:39.767Z,5.63
2018-09-13T15:02:58.559Z,4.73
2018-09-13T15:08:17.275Z,5.00
2018-09-13T15:13:35.834Z,5.83
2018-09-13T15:18:54.540Z,6.20
2018-09-13T15:24:13.170Z,6.33
2018-09-13T15:29:31.727Z,5.60
2018-09-13T15:34:50.644Z,5.43
2018-09-13T15:40:09.293Z,6.07
2018-09-13T15:45:28.897Z,7.50
2018-09-13T15:50:47.458Z,6.40
2018-09-13T15:56:06.057Z,7.03
2018-09-13T16:01:24.798Z,14.33
2018-09-13T16:06:43.351Z,6.10
2018-09-13T16:12:01.916Z,7.90
2018-09-13T16:17:20.648Z,6.50
2018-09-13T16:22:39.349Z,7.20
2018-09-13T16:27:58.015Z,6.50
2018-09-13T16:33:16.778Z,6.20
2018-09-13T16:38:40.917Z,6.03
2018-09-13T16:44:02.131Z,7.67
2018-09-13T16:49:23.525Z,8.23
2018-09-13T16:54:42.222Z,7.07
2018-09-13T17:00:00.775Z,7.43
2018-09-13T17:05:19.369Z,7.87
2018-09-13T17:10:38.122Z,8.13
2018-09-13T17:15:56.842Z,7.50
2018-09-13T17:21:15.498Z,8.43
2018-09-13T17:26:34.519Z,9.53
2018-09-13T17:31:53.144Z,10.27
2018-09-13T17:37:11.727Z,11.27
2018-09-13T17:42:30.313Z,11.30
2018-09-13T17:47:49.308Z,11.20
2018-09-13T17:53:08.115Z,12.28
2018-09-13T17:58:26.815Z,14.40
2018-09-13T18:03:46.365Z,12.47
2018-09-13T18:09:08.093Z,11.93
2018-09-13T18:14:27.221Z,12.27
2018-09-13T18:19:46.535Z,12.95
2018-09-13T18:25:05.331Z,14.37
2018-09-13T18:30:24.102Z,11.23
2018-09-13T18:35:42.704Z,13.60
2018-09-13T18:41:01.291Z,13.77
2018-09-13T18:46:19.898Z,11.27
2018-09-13T18:51:38.575Z,15.53
2018-09-13T18:56:57.177Z,15.80
2018-09-13T19:02:15.771Z,16.47
2018-09-13T19:07:34.955Z,15.40
2018-09-13T19:12:53.585Z,15.90
2018-09-13T19:18:13.270Z,17.07
2018-09-13T19:23:32.167Z,16.73
2018-09-13T19:28:50.735Z,17.12
2018-09-13T19:34:09.341Z,12.00
2018-09-13T19:39:27.912Z,16.33
2018-09-13T19:44:46.535Z,18.77
2018-09-13T19:50:06.055Z,26.23
2018-09-13T19:55:24.812Z,27.60
2018-09-13T20:00:43.450Z,25.83
2018-09-13T20:06:02.073Z,26.00
2018-09-13T20:11:21.353Z,25.40
2018-09-13T20:16:39.882Z,24.67
2018-09-13T20:21:58.392Z,28.20
2018-09-13T20:27:16.919Z,26.10
2018-09-13T20:32:42.047Z,31.00
2018-09-13T20:38:00.564Z,31.53
2018-09-13T20:43:19.235Z,31.40
2018-09-13T20:48:38.487Z,27.22
2018-09-13T20:53:57.034Z,29.50
2018-09-13T20:59:15.735Z,24.23
2018-09-13T21:04:34.304Z,25.27
2018-09-13T21:09:53.222Z,30.63
2018-09-13T21:15:11.940Z,26.20
2018-09-13T21:20:30.636Z,27.42
2018-09-13T21:25:49.337Z,24.73
2018-09-13T21:31:07.915Z,27.32
2018-09-13T21:36:26.529Z,25.00
2018-09-13T21:41:45.239Z,25.17
2018-09-13T21:47:03.795Z,24.47
2018-09-13T21:52:22.434Z,28.63
2018-09-13T21:57:41.011Z,23.60
2018-09-13T22:02:59.605Z,29.73
2018-09-13T22:08:18.122Z,24.15
2018-09-13T22:13:37.009Z,26.97
2018-09-13T22:18:55.798Z,25.67
2018-09-13T22:24:13.361Z,29.90
2018-09-13T22:29:32.006Z,30.07
2018-09-13T22:34:50.566Z,27.37
2018-09-13T22:40:09.161Z,26.13
2018-09-13T22:45:27.720Z,28.20
2018-09-13T22:50:46.252Z,23.03
2018-09-13T22:56:04.817Z,27.27
2018-09-13T23:01:23.419Z,23.73
2018-09-13T23:06:41.953Z,21.13
2018-09-13T23:12:00.463Z,23.30
2018-09-13T23:17:19.146Z,24.33
2018-09-13T23:22:37.920Z,30.60
2018-09-13T23:27:56.491Z,25.50
2018-09-13T23:33:15.051Z,27.90
2018-09-13T23:38:34.822Z,26.30
2018-09-13T23:43:53.356Z,24.77
2018-09-13T23:49:11.951Z,21.87
2018-09-13T23:54:30.672Z,23.13
2018-09-13T23:59:49.210Z,20.83
